sensor_id;sensor_type;location;lat;lon;timestamp;pressure;altitude;pressure_sealevel;temperature;humidity
72210;BME280;60113;48.762;12.302;2023-02-15T00:01:04;98736.97;;;-3.54;100.00
72210;BME280;60113;48.762;12.302;2023-02-15T00:03:30;98736.09;;;-3.57;100.00
72210;BME280;60113;48.762;12.302;2023-02-15T00:05:56;98740.34;;;-3.61;100.00
72210;BME280;60113;48.762;12.302;2023-02-15T00:08:24;98738.63;;;-3.60;100.00
72210;BME280;60113;48.762;12.302;2023-02-15T00:10:49;98738.63;;;-3.59;99.28
72210;BME280;60113;48.762;12.302;2023-02-15T00:13:15;98733.47;;;-3.62;99.15
72210;BME280;60113;48.762;12.302;2023-02-15T00:15:40;98728.34;;;-3.62;99.93
72210;BME280;60113;48.762;12.302;2023-02-15T00:18:06;98727.47;;;-3.64;99.66
72210;BME280;60113;48.762;12.302;2023-02-15T00:20:31;98726.63;;;-3.65;100.00
72210;BME280;60113;48.762;12.302;2023-02-15T00:22:56;98724.88;;;-3.67;100.00
72210;BME280;60113;48.762;12.302;2023-02-15T00:25:21;98718.03;;;-3.68;100.00
72210;BME280;60113;48.762;12.302;2023-02-15T00:27:47;98718.03;;;-3.71;100.00
72210;BME280;60113;48.762;12.302;2023-02-15T00:30:12;98715.44;;;-3.71;100.00
72210;BME280;60113;48.762;12.302;2023-02-15T00:32:38;98717.16;;;-3.70;100.00
72210;BME280;60113;48.762;12.302;2023-02-15T00:35:03;98709.44;;;-3.70;100.00
72210;BME280;60113;48.762;12.302;2023-02-15T00:37:29;98715.47;;;-3.70;100.00
72210;BME280;60113;48.762;12.302;2023-02-15T00:39:54;98717.16;;;-3.72;100.00
72210;BME280;60113;48.762;12.302;2023-02-15T00:42:20;98712.88;;;-3.74;100.00
72210;BME280;60113;48.762;12.302;2023-02-15T00:44:45;98712.88;;;-3.74;100.00
72210;BME280;60113;48.762;12.302;2023-02-15T00:47:10;98713.75;;;-3.72;100.00
72210;BME280;60113;48.762;12.302;2023-02-15T00:49:36;98712.88;;;-3.71;100.00
72210;BME280;60113;48.762;12.302;2023-02-15T00:52:04;98710.31;;;-3.71;100.00
72210;BME280;60113;48.762;12.302;2023-02-15T00:54:29;98709.44;;;-3.70;100.00
72210;BME280;60113;48.762;12.302;2023-02-15T00:56:55;98706.03;;;-3.71;100.00
72210;BME280;60113;48.762;12.302;2023-02-15T00:59:20;98704.34;;;-3.66;100.00
72210;BME280;60113;48.762;12.302;2023-02-15T01:01:45;98707.78;;;-3.64;100.00
72210;BME280;60113;48.762;12.302;2023-02-15T01:04:11;98700.91;;;-3.68;100.00
72210;BME280;60113;48.762;12.302;2023-02-15T01:06:36;98698.38;;;-3.65;100.00
72210;BME280;60113;48.762;12.302;2023-02-15T01:09:01;98697.50;;;-3.67;100.00
72210;BME280;60113;48.762;12.302;2023-02-15T01:11:28;98694.91;;;-3.68;100.00
72210;BME280;60113;48.762;12.302;2023-02-15T01:13:55;98688.91;;;-3.70;100.00
72210;BME280;60113;48.762;12.302;2023-02-15T01:16:22;98689.75;;;-3.71;100.00
72210;BME280;60113;48.762;12.302;2023-02-15T01:18:48;98698.31;;;-3.72;100.00
72210;BME280;60113;48.762;12.302;2023-02-15T01:21:16;98688.03;;;-3.75;98.98
72210;BME280;60113;48.762;12.302;2023-02-15T01:23:42;98688.03;;;-3.77;99.55
72210;BME280;60113;48.762;12.302;2023-02-15T01:26:07;98682.88;;;-3.79;99.52
72210;BME280;60113;48.762;12.302;2023-02-15T01:28:33;98676.00;;;-3.78;99.46
72210;BME280;60113;48.762;12.302;2023-02-15T01:30:58;98684.59;;;-3.78;99.85
72210;BME280;60113;48.762;12.302;2023-02-15T01:33:24;98679.44;;;-3.78;100.00
72210;BME280;60113;48.762;12.302;2023-02-15T01:35:55;98685.47;;;-3.77;99.43
72210;BME280;60113;48.762;12.302;2023-02-15T01:38:21;98690.59;;;-3.77;99.31
72210;BME280;60113;48.762;12.302;2023-02-15T01:40:46;98689.72;;;-3.81;97.76
72210;BME280;60113;48.762;12.302;2023-02-15T01:43:12;98675.16;;;-3.82;97.59
72210;BME280;60113;48.762;12.302;2023-02-15T01:45:37;98673.41;;;-3.83;97.71
72210;BME280;60113;48.762;12.302;2023-02-15T01:48:05;98670.00;;;-3.85;97.22
72210;BME280;60113;48.762;12.302;2023-02-15T01:50:34;98659.72;;;-3.83;98.33
72210;BME280;60113;48.762;12.302;2023-02-15T01:53:03;98658.00;;;-3.83;98.23
72210;BME280;60113;48.762;12.302;2023-02-15T01:55:41;98654.59;;;-3.82;98.78
72210;BME280;60113;48.762;12.302;2023-02-15T01:58:09;98654.63;;;-3.77;100.00
72210;BME280;60113;48.762;12.302;2023-02-15T02:00:36;98644.34;;;-3.80;100.00
72210;BME280;60113;48.762;12.302;2023-02-15T02:03:01;98643.47;;;-3.81;100.00
72210;BME280;60113;48.762;12.302;2023-02-15T02:05:27;98640.91;;;-3.81;100.00
72210;BME280;60113;48.762;12.302;2023-02-15T02:07:53;98639.22;;;-3.79;100.00
72210;BME280;60113;48.762;12.302;2023-02-15T02:10:21;98636.63;;;-3.79;100.00
72210;BME280;60113;48.762;12.302;2023-02-15T02:12:54;98627.19;;;-3.77;100.00
72210;BME280;60113;48.762;12.302;2023-02-15T02:15:47;98624.63;;;-3.80;100.00
72210;BME280;60113;48.762;12.302;2023-02-15T02:30:49;98613.50;;;-3.82;99.51
72210;BME280;60113;48.762;12.302;2023-02-15T02:33:20;98610.03;;;-3.89;100.00
72210;BME280;60113;48.762;12.302;2023-02-15T02:43:33;98614.28;;;-3.97;100.00
72210;BME280;60113;48.762;12.302;2023-02-15T02:46:05;98610.00;;;-3.96;100.00
72210;BME280;60113;48.762;12.302;2023-02-15T02:48:36;98612.59;;;-3.95;99.30
72210;BME280;60113;48.762;12.302;2023-02-15T02:51:01;98616.88;;;-3.92;98.05
72210;BME280;60113;48.762;12.302;2023-02-15T02:53:27;98618.59;;;-3.91;99.28
72210;BME280;60113;48.762;12.302;2023-02-15T02:55:59;98611.72;;;-3.95;98.91
72210;BME280;60113;48.762;12.302;2023-02-15T03:05:51;98605.72;;;-3.97;97.46
72210;BME280;60113;48.762;12.302;2023-02-15T03:08:18;98604.00;;;-3.98;97.04
72210;BME280;60113;48.762;12.302;2023-02-15T03:10:52;98604.00;;;-4.00;97.45
72210;BME280;60113;48.762;12.302;2023-02-15T03:13:18;98601.44;;;-4.03;97.71
72210;BME280;60113;48.762;12.302;2023-02-15T03:15:43;98600.56;;;-4.04;98.12
72210;BME280;60113;48.762;12.302;2023-02-15T03:18:30;98592.00;;;-4.04;97.82
72210;BME280;60113;48.762;12.302;2023-02-15T03:20:57;98593.72;;;-4.03;97.93
72210;BME280;60113;48.762;12.302;2023-02-15T03:23:25;98597.13;;;-4.03;96.78
72210;BME280;60113;48.762;12.302;2023-02-15T03:25:56;98592.84;;;-4.04;99.25
72210;BME280;60113;48.762;12.302;2023-02-15T03:28:27;98598.84;;;-4.06;97.96
72210;BME280;60113;48.762;12.302;2023-02-15T03:30:55;98584.28;;;-4.07;97.54
72210;BME280;60113;48.762;12.302;2023-02-15T03:33:24;98591.13;;;-4.08;98.14
72210;BME280;60113;48.762;12.302;2023-02-15T03:38:46;98597.09;;;-4.10;97.55
72210;BME280;60113;48.762;12.302;2023-02-15T03:41:16;98598.81;;;-4.12;98.23
72210;BME280;60113;48.762;12.302;2023-02-15T03:46:15;98592.81;;;-4.13;98.43
72210;BME280;60113;48.762;12.302;2023-02-15T03:48:44;98592.81;;;-4.15;97.09
72210;BME280;60113;48.762;12.302;2023-02-15T03:51:12;98593.66;;;-4.16;97.62
72210;BME280;60113;48.762;12.302;2023-02-15T03:53:58;98592.78;;;-4.16;99.50
72210;BME280;60113;48.762;12.302;2023-02-15T03:56:24;98597.06;;;-4.18;97.28
72210;BME280;60113;48.762;12.302;2023-02-15T03:58:49;98598.78;;;-4.17;97.95
72210;BME280;60113;48.762;12.302;2023-02-15T04:01:34;98601.38;;;-4.16;98.18
72210;BME280;60113;48.762;12.302;2023-02-15T04:04:37;98596.25;;;-4.16;95.21
72210;BME280;60113;48.762;12.302;2023-02-15T04:07:04;98603.09;;;-4.13;96.50
72210;BME280;60113;48.762;12.302;2023-02-15T04:09:31;98599.66;;;-4.12;95.94
72210;BME280;60113;48.762;12.302;2023-02-15T04:12:15;98605.66;;;-4.11;96.38
72210;BME280;60113;48.762;12.302;2023-02-15T04:14:40;98598.81;;;-4.11;96.76
72210;BME280;60113;48.762;12.302;2023-02-15T04:17:24;98609.94;;;-4.09;96.90
72210;BME280;60113;48.762;12.302;2023-02-15T04:19:49;98604.81;;;-4.10;96.83
72210;BME280;60113;48.762;12.302;2023-02-15T04:22:33;98604.81;;;-4.09;95.54
72210;BME280;60113;48.762;12.302;2023-02-15T04:25:17;98603.97;;;-4.06;97.57
72210;BME280;60113;48.762;12.302;2023-02-15T04:27:43;98599.69;;;-4.06;97.41
72210;BME280;60113;48.762;12.302;2023-02-15T04:30:09;98595.44;;;-4.04;97.59
72210;BME280;60113;48.762;12.302;2023-02-15T04:32:35;98597.13;;;-4.04;97.78
72210;BME280;60113;48.762;12.302;2023-02-15T04:35:01;98597.13;;;-4.03;99.05
72210;BME280;60113;48.762;12.302;2023-02-15T04:37:26;98593.75;;;-4.02;100.00
72210;BME280;60113;48.762;12.302;2023-02-15T04:39:51;98592.88;;;-4.02;100.00
72210;BME280;60113;48.762;12.302;2023-02-15T04:42:17;98592.00;;;-4.04;100.00
72210;BME280;60113;48.762;12.302;2023-02-15T04:44:42;98598.88;;;-4.03;100.00
72210;BME280;60113;48.762;12.302;2023-02-15T04:47:07;98592.00;;;-4.04;100.00
72210;BME280;60113;48.762;12.302;2023-02-15T04:49:33;98592.00;;;-4.03;100.00
72210;BME280;60113;48.762;12.302;2023-02-15T04:51:58;98592.84;;;-4.04;100.00
72210;BME280;60113;48.762;12.302;2023-02-15T04:54:26;98598.84;;;-4.05;100.00
72210;BME280;60113;48.762;12.302;2023-02-15T04:56:51;98595.44;;;-4.02;100.00
72210;BME280;60113;48.762;12.302;2023-02-15T04:59:20;98603.13;;;-4.05;100.00
72210;BME280;60113;48.762;12.302;2023-02-15T05:01:45;98601.41;;;-4.06;99.47
72210;BME280;60113;48.762;12.302;2023-02-15T05:04:10;98593.69;;;-4.09;99.82
72210;BME280;60113;48.762;12.302;2023-02-15T05:06:36;98602.22;;;-4.12;99.89
72210;BME280;60113;48.762;12.302;2023-02-15T05:09:01;98591.94;;;-4.15;98.98
72210;BME280;60113;48.762;12.302;2023-02-15T05:11:26;98597.06;;;-4.15;99.10
72210;BME280;60113;48.762;12.302;2023-02-15T05:13:52;98588.53;;;-4.17;98.54
72210;BME280;60113;48.762;12.302;2023-02-15T05:16:17;98590.22;;;-4.19;97.90
72210;BME280;60113;48.762;12.302;2023-02-15T05:18:43;98591.94;;;-4.17;98.52
72210;BME280;60113;48.762;12.302;2023-02-15T05:21:08;98594.50;;;-4.18;99.47
72210;BME280;60113;48.762;12.302;2023-02-15T05:23:34;98594.47;;;-4.24;99.38
72210;BME280;60113;48.762;12.302;2023-02-15T05:25:59;98597.00;;;-4.26;99.24
72210;BME280;60113;48.762;12.302;2023-02-15T05:28:43;98602.16;;;-4.24;100.00
72210;BME280;60113;48.762;12.302;2023-02-15T05:31:12;98607.28;;;-4.28;100.00
72210;BME280;60113;48.762;12.302;2023-02-15T05:33:38;98611.59;;;-4.27;100.00
72210;BME280;60113;48.762;12.302;2023-02-15T05:36:03;98606.44;;;-4.27;100.00
72210;BME280;60113;48.762;12.302;2023-02-15T05:38:29;98616.72;;;-4.25;100.00
72210;BME280;60113;48.762;12.302;2023-02-15T05:40:55;98609.03;;;-4.25;100.00
72210;BME280;60113;48.762;12.302;2023-02-15T05:43:21;98615.88;;;-4.24;100.00
72210;BME280;60113;48.762;12.302;2023-02-15T05:45:50;98606.47;;;-4.23;100.00
72210;BME280;60113;48.762;12.302;2023-02-15T05:48:16;98604.72;;;-4.26;100.00
72210;BME280;60113;48.762;12.302;2023-02-15T05:50:41;98605.56;;;-4.27;98.52
72210;BME280;60113;48.762;12.302;2023-02-15T05:53:07;98609.84;;;-4.26;98.69
72210;BME280;60113;48.762;12.302;2023-02-15T05:55:32;98614.16;;;-4.23;100.00
72210;BME280;60113;48.762;12.302;2023-02-15T05:57:58;98615.00;;;-4.23;100.00
72210;BME280;60113;48.762;12.302;2023-02-15T06:00:23;98620.16;;;-4.21;100.00
72210;BME280;60113;48.762;12.302;2023-02-15T06:02:48;98624.44;;;-4.22;100.00
72210;BME280;60113;48.762;12.302;2023-02-15T06:05:14;98626.16;;;-4.19;98.35
72210;BME280;60113;48.762;12.302;2023-02-15T06:07:42;98615.91;;;-4.18;99.25
72210;BME280;60113;48.762;12.302;2023-02-15T06:10:07;98627.84;;;-4.20;99.16
72210;BME280;60113;48.762;12.302;2023-02-15T06:12:33;98621.00;;;-4.22;98.60
72210;BME280;60113;48.762;12.302;2023-02-15T06:14:58;98627.00;;;-4.23;96.63
72210;BME280;60113;48.762;12.302;2023-02-15T06:17:24;98627.00;;;-4.25;96.71
72210;BME280;60113;48.762;12.302;2023-02-15T06:19:49;98626.13;;;-4.27;96.22
72210;BME280;60113;48.762;12.302;2023-02-15T06:22:14;98621.81;;;-4.30;96.87
72210;BME280;60113;48.762;12.302;2023-02-15T06:24:39;98626.06;;;-4.33;96.04
72210;BME280;60113;48.762;12.302;2023-02-15T06:27:07;98626.06;;;-4.33;96.44
72210;BME280;60113;48.762;12.302;2023-02-15T06:29:34;98629.50;;;-4.34;96.03
72210;BME280;60113;48.762;12.302;2023-02-15T06:32:00;98639.75;;;-4.36;97.06
72210;BME280;60113;48.762;12.302;2023-02-15T06:34:25;98631.19;;;-4.38;97.03
72210;BME280;60113;48.762;12.302;2023-02-15T06:36:50;98637.16;;;-4.41;97.51
72210;BME280;60113;48.762;12.302;2023-02-15T06:39:16;98633.69;;;-4.44;98.42
72210;BME280;60113;48.762;12.302;2023-02-15T06:41:41;98638.84;;;-4.44;98.51
72210;BME280;60113;48.762;12.302;2023-02-15T06:44:06;98646.53;;;-4.46;98.57
72210;BME280;60113;48.762;12.302;2023-02-15T06:46:32;98639.69;;;-4.47;98.16
72210;BME280;60113;48.762;12.302;2023-02-15T06:48:57;98654.22;;;-4.47;97.59
72210;BME280;60113;48.762;12.302;2023-02-15T06:51:23;98650.78;;;-4.46;96.46
72210;BME280;60113;48.762;12.302;2023-02-15T06:53:48;98637.13;;;-4.44;96.63
72210;BME280;60113;48.762;12.302;2023-02-15T06:56:13;98636.28;;;-4.43;96.19
72210;BME280;60113;48.762;12.302;2023-02-15T06:58:39;98630.28;;;-4.40;95.45
72210;BME280;60113;48.762;12.302;2023-02-15T07:01:05;98638.88;;;-4.38;95.68
72210;BME280;60113;48.762;12.302;2023-02-15T07:03:31;98641.44;;;-4.36;95.79
72210;BME280;60113;48.762;12.302;2023-02-15T07:05:57;98637.22;;;-4.33;96.46
72210;BME280;60113;48.762;12.302;2023-02-15T07:08:23;98632.91;;;-4.32;96.83
72210;BME280;60113;48.762;12.302;2023-02-15T07:10:49;98633.78;;;-4.30;97.41
72210;BME280;60113;48.762;12.302;2023-02-15T07:13:14;98636.38;;;-4.29;97.25
72210;BME280;60113;48.762;12.302;2023-02-15T07:15:40;98641.53;;;-4.24;97.01
72210;BME280;60113;48.762;12.302;2023-02-15T07:18:08;98644.97;;;-4.22;98.66
72210;BME280;60113;48.762;12.302;2023-02-15T07:20:34;98639.84;;;-4.20;97.96
72210;BME280;60113;48.762;12.302;2023-02-15T07:23:00;98639.00;;;-4.16;98.06
72210;BME280;60113;48.762;12.302;2023-02-15T07:25:26;98637.34;;;-4.11;99.36
72210;BME280;60113;48.762;12.302;2023-02-15T07:27:58;98629.63;;;-4.11;99.43
72210;BME280;60113;48.762;12.302;2023-02-15T07:30:24;98636.50;;;-4.07;98.87
72210;BME280;60113;48.762;12.302;2023-02-15T07:32:49;98627.94;;;-4.07;98.17
72210;BME280;60113;48.762;12.302;2023-02-15T07:35:33;98636.50;;;-4.07;98.28
72210;BME280;60113;48.762;12.302;2023-02-15T07:37:59;98639.06;;;-4.07;98.28
72210;BME280;60113;48.762;12.302;2023-02-15T07:40:24;98635.63;;;-4.06;98.19
72210;BME280;60113;48.762;12.302;2023-02-15T07:42:50;98634.81;;;-4.05;97.06
72210;BME280;60113;48.762;12.302;2023-02-15T07:45:18;98630.53;;;-4.03;96.75
72210;BME280;60113;48.762;12.302;2023-02-15T07:47:43;98624.53;;;-3.98;97.46
72210;BME280;60113;48.762;12.302;2023-02-15T07:50:08;98621.13;;;-3.97;98.67
72210;BME280;60113;48.762;12.302;2023-02-15T07:52:33;98619.41;;;-3.97;97.90
72210;BME280;60113;48.762;12.302;2023-02-15T07:54:59;98632.25;;;-3.97;97.52
72210;BME280;60113;48.762;12.302;2023-02-15T07:57:27;98628.84;;;-3.96;97.65
72210;BME280;60113;48.762;12.302;2023-02-15T07:59:53;98626.28;;;-3.97;98.19
72210;BME280;60113;48.762;12.302;2023-02-15T08:02:18;98627.13;;;-3.94;96.54
72210;BME280;60113;48.762;12.302;2023-02-15T08:04:43;98628.00;;;-3.92;96.06
72210;BME280;60113;48.762;12.302;2023-02-15T08:07:09;98617.75;;;-3.85;96.50
72210;BME280;60113;48.762;12.302;2023-02-15T08:09:36;98625.50;;;-3.81;97.26
72210;BME280;60113;48.762;12.302;2023-02-15T08:12:02;98627.19;;;-3.77;97.76
72210;BME280;60113;48.762;12.302;2023-02-15T08:14:28;98620.38;;;-3.74;97.64
72210;BME280;60113;48.762;12.302;2023-02-15T08:16:58;98633.22;;;-3.76;97.32
72210;BME280;60113;48.762;12.302;2023-02-15T08:19:31;98628.06;;;-3.76;97.10
72210;BME280;60113;48.762;12.302;2023-02-15T08:21:57;98623.81;;;-3.75;96.36
72210;BME280;60113;48.762;12.302;2023-02-15T08:24:26;98622.94;;;-3.74;95.12
72210;BME280;60113;48.762;12.302;2023-02-15T08:26:58;98623.84;;;-3.68;97.16
72210;BME280;60113;48.762;12.302;2023-02-15T08:29:25;98634.97;;;-3.66;98.16
72210;BME280;60113;48.762;12.302;2023-02-15T08:31:54;98634.97;;;-3.62;97.38
72210;BME280;60113;48.762;12.302;2023-02-15T08:34:20;98633.28;;;-3.59;97.24
72210;BME280;60113;48.762;12.302;2023-02-15T08:36:46;98635.88;;;-3.54;96.29
72210;BME280;60113;48.762;12.302;2023-02-15T08:39:11;98634.16;;;-3.54;97.48
72210;BME280;60113;48.762;12.302;2023-02-15T08:41:37;98637.56;;;-3.58;97.77
72210;BME280;60113;48.762;12.302;2023-02-15T08:44:16;98643.56;;;-3.60;96.68
72210;BME280;60113;48.762;12.302;2023-02-15T08:46:50;98639.28;;;-3.60;96.97
72210;BME280;60113;48.762;12.302;2023-02-15T08:49:16;98636.72;;;-3.58;97.26
72210;BME280;60113;48.762;12.302;2023-02-15T08:51:42;98639.28;;;-3.55;98.94
72210;BME280;60113;48.762;12.302;2023-02-15T08:54:14;98645.28;;;-3.53;97.85
72210;BME280;60113;48.762;12.302;2023-02-15T08:56:41;98635.00;;;-3.56;97.82
72210;BME280;60113;48.762;12.302;2023-02-15T08:59:07;98633.28;;;-3.56;98.57
72210;BME280;60113;48.762;12.302;2023-02-15T09:01:36;98628.16;;;-3.56;98.55
72210;BME280;60113;48.762;12.302;2023-02-15T09:04:05;98620.44;;;-3.57;98.48
72210;BME280;60113;48.762;12.302;2023-02-15T09:06:36;98617.84;;;-3.60;98.73
72210;BME280;60113;48.762;12.302;2023-02-15T09:09:02;98611.84;;;-3.61;98.57
72210;BME280;60113;48.762;12.302;2023-02-15T09:11:29;98617.00;;;-3.59;98.51
72210;BME280;60113;48.762;12.302;2023-02-15T09:13:56;98612.72;;;-3.57;98.10
72210;BME280;60113;48.762;12.302;2023-02-15T09:16:21;98616.16;;;-3.55;98.24
72210;BME280;60113;48.762;12.302;2023-02-15T09:18:47;98614.44;;;-3.50;98.34
72210;BME280;60113;48.762;12.302;2023-02-15T09:21:14;98608.47;;;-3.52;98.66
72210;BME280;60113;48.762;12.302;2023-02-15T09:23:40;98605.88;;;-3.55;99.03
72210;BME280;60113;48.762;12.302;2023-02-15T09:26:07;98604.16;;;-3.55;98.58
72210;BME280;60113;48.762;12.302;2023-02-15T09:28:33;98600.78;;;-3.46;98.55
72210;BME280;60113;48.762;12.302;2023-02-15T09:31:08;98601.63;;;-3.41;97.58
72210;BME280;60113;48.762;12.302;2023-02-15T09:33:34;98605.06;;;-3.34;98.86
72210;BME280;60113;48.762;12.302;2023-02-15T09:36:03;98603.34;;;-3.29;98.88
72210;BME280;60113;48.762;12.302;2023-02-15T09:38:31;98599.94;;;-3.23;98.34
72210;BME280;60113;48.762;12.302;2023-02-15T09:41:13;98605.09;;;-3.20;98.39
72210;BME280;60113;48.762;12.302;2023-02-15T09:43:46;98602.53;;;-3.15;97.86
72210;BME280;60113;48.762;12.302;2023-02-15T09:46:55;98617.09;;;-3.09;97.46
72210;BME280;60113;48.762;12.302;2023-02-15T09:56:58;98629.13;;;-2.91;97.58
72210;BME280;60113;48.762;12.302;2023-02-15T09:59:38;98630.84;;;-2.85;97.29
72210;BME280;60113;48.762;12.302;2023-02-15T10:04:40;98627.41;;;-2.81;96.72
72210;BME280;60113;48.762;12.302;2023-02-15T10:09:55;98629.13;;;-2.71;96.68
72210;BME280;60113;48.762;12.302;2023-02-15T10:17:41;98637.72;;;-2.64;95.68
72210;BME280;60113;48.762;12.302;2023-02-15T10:25:09;98612.84;;;-2.70;96.19
72210;BME280;60113;48.762;12.302;2023-02-15T10:27:46;98619.69;;;-2.62;95.74
72210;BME280;60113;48.762;12.302;2023-02-15T10:30:19;98605.97;;;-2.61;95.42
72210;BME280;60113;48.762;12.302;2023-02-15T10:33:00;98601.69;;;-2.62;95.22
72210;BME280;60113;48.762;12.302;2023-02-15T10:35:30;98600.81;;;-2.58;95.09
72210;BME280;60113;48.762;12.302;2023-02-15T10:45:41;98590.50;;;-2.60;93.87
72210;BME280;60113;48.762;12.302;2023-02-15T10:50:53;98599.09;;;-2.61;93.80
72210;BME280;60113;48.762;12.302;2023-02-15T10:53:29;98596.53;;;-2.52;93.08
72210;BME280;60113;48.762;12.302;2023-02-15T11:01:20;98583.63;;;-2.44;94.79
72210;BME280;60113;48.762;12.302;2023-02-15T11:06:27;98581.03;;;-2.33;93.90
72210;BME280;60113;48.762;12.302;2023-02-15T11:08:57;98577.59;;;-2.29;94.50
72210;BME280;60113;48.762;12.302;2023-02-15T11:11:26;98576.72;;;-2.26;94.08
72210;BME280;60113;48.762;12.302;2023-02-15T11:13:56;98575.88;;;-2.28;94.16
72210;BME280;60113;48.762;12.302;2023-02-15T11:16:24;98566.44;;;-2.34;93.79
72210;BME280;60113;48.762;12.302;2023-02-15T11:21:30;98555.31;;;-2.34;93.60
72210;BME280;60113;48.762;12.302;2023-02-15T11:23:57;98551.84;;;-2.29;94.33
72210;BME280;60113;48.762;12.302;2023-02-15T11:28:53;98546.69;;;-2.24;95.22
72210;BME280;60113;48.762;12.302;2023-02-15T11:31:21;98551.81;;;-2.18;93.93
72210;BME280;60113;48.762;12.302;2023-02-15T11:33:51;98549.22;;;-2.11;94.77
72210;BME280;60113;48.762;12.302;2023-02-15T11:36:22;98555.22;;;-2.06;94.83
72210;BME280;60113;48.762;12.302;2023-02-15T11:38:51;98548.31;;;-2.03;93.52
72210;BME280;60113;48.762;12.302;2023-02-15T11:41:24;98544.84;;;-1.98;94.06
72210;BME280;60113;48.762;12.302;2023-02-15T11:46:17;98533.69;;;-1.99;94.01
72210;BME280;60113;48.762;12.302;2023-02-15T11:48:44;98532.84;;;-1.99;93.77
72210;BME280;60113;48.762;12.302;2023-02-15T11:51:16;98523.41;;;-2.01;94.01
72210;BME280;60113;48.762;12.302;2023-02-15T11:53:42;98524.28;;;-2.03;94.09
72210;BME280;60113;48.762;12.302;2023-02-15T11:56:20;98527.69;;;-2.03;93.64
72210;BME280;60113;48.762;12.302;2023-02-15T12:04:06;98519.03;;;-1.88;94.43
72210;BME280;60113;48.762;12.302;2023-02-15T12:06:33;98513.00;;;-1.82;93.66
72210;BME280;60113;48.762;12.302;2023-02-15T12:11:39;98503.47;;;-1.70;93.58
72210;BME280;60113;48.762;12.302;2023-02-15T12:14:05;98500.84;;;-1.61;93.32
72210;BME280;60113;48.762;12.302;2023-02-15T12:16:50;98499.97;;;-1.58;93.01
72210;BME280;60113;48.762;12.302;2023-02-15T12:19:29;98499.09;;;-1.56;93.25
72210;BME280;60113;48.762;12.302;2023-02-15T12:21:56;98503.38;;;-1.56;92.94
72210;BME280;60113;48.762;12.302;2023-02-15T12:24:23;98499.09;;;-1.57;92.97
72210;BME280;60113;48.762;12.302;2023-02-15T12:26:56;98494.84;;;-1.60;92.96
72210;BME280;60113;48.762;12.302;2023-02-15T12:29:24;98493.13;;;-1.63;92.82
72210;BME280;60113;48.762;12.302;2023-02-15T12:31:51;98494.00;;;-1.67;93.37
72210;BME280;60113;48.762;12.302;2023-02-15T12:34:21;98483.75;;;-1.76;93.49
72210;BME280;60113;48.762;12.302;2023-02-15T12:36:49;98482.91;;;-1.80;94.20
72210;BME280;60113;48.762;12.302;2023-02-15T12:39:22;98479.50;;;-1.80;94.03
72210;BME280;60113;48.762;12.302;2023-02-15T12:49:32;98469.91;;;-1.61;94.12
72210;BME280;60113;48.762;12.302;2023-02-15T12:52:05;98464.72;;;-1.58;93.53
72210;BME280;60113;48.762;12.302;2023-02-15T12:54:35;98468.16;;;-1.57;94.46
72210;BME280;60113;48.762;12.302;2023-02-15T12:59:54;98465.56;;;-1.54;93.30
72210;BME280;60113;48.762;12.302;2023-02-15T13:02:25;98463.84;;;-1.51;93.20
72210;BME280;60113;48.762;12.302;2023-02-15T13:04:51;98444.97;;;-1.56;93.59
72210;BME280;60113;48.762;12.302;2023-02-15T13:07:17;98443.22;;;-1.54;92.75
72210;BME280;60113;48.762;12.302;2023-02-15T13:09:43;98441.47;;;-1.52;92.34
72210;BME280;60113;48.762;12.302;2023-02-15T13:14:42;98434.63;;;-1.54;92.72
72210;BME280;60113;48.762;12.302;2023-02-15T13:17:09;98432.94;;;-1.58;93.05
72210;BME280;60113;48.762;12.302;2023-02-15T13:22:01;98436.38;;;-1.61;93.33
72210;BME280;60113;48.762;12.302;2023-02-15T13:24:28;98438.97;;;-1.61;93.30
72210;BME280;60113;48.762;12.302;2023-02-15T13:26:57;98437.28;;;-1.64;93.37
72210;BME280;60113;48.762;12.302;2023-02-15T13:29:27;98438.22;;;-1.74;93.42
72210;BME280;60113;48.762;12.302;2023-02-15T13:31:53;98434.81;;;-1.81;93.34
72210;BME280;60113;48.762;12.302;2023-02-15T13:37:12;98436.53;;;-1.81;93.03
72210;BME280;60113;48.762;12.302;2023-02-15T13:50:18;98424.50;;;-1.78;93.50
72210;BME280;60113;48.762;12.302;2023-02-15T13:53:34;98419.31;;;-1.73;93.00
72210;BME280;60113;48.762;12.302;2023-02-15T14:17:03;98406.38;;;-1.67;93.48
72210;BME280;60113;48.762;12.302;2023-02-15T14:24:35;98414.13;;;-1.71;92.76
72210;BME280;60113;48.762;12.302;2023-02-15T14:29:37;98413.34;;;-1.84;94.28
72210;BME280;60113;48.762;12.302;2023-02-15T14:32:18;98416.84;;;-1.89;94.88
72210;BME280;60113;48.762;12.302;2023-02-15T14:37:11;98417.69;;;-1.86;95.99
72210;BME280;60113;48.762;12.302;2023-02-15T14:39:42;98409.09;;;-1.87;95.88
72210;BME280;60113;48.762;12.302;2023-02-15T14:43:11;98408.19;;;-1.83;95.39
72210;BME280;60113;48.762;12.302;2023-02-15T14:45:22;98397.88;;;-1.81;95.26
72210;BME280;60113;48.762;12.302;2023-02-15T14:47:56;98393.56;;;-1.79;95.42
72210;BME280;60113;48.762;12.302;2023-02-15T14:53:22;98391.84;;;-1.76;95.58
72210;BME280;60113;48.762;12.302;2023-02-15T14:58:33;98388.38;;;-1.74;94.90
72210;BME280;60113;48.762;12.302;2023-02-15T15:01:08;98394.44;;;-1.77;95.16
72210;BME280;60113;48.762;12.302;2023-02-15T15:03:43;98399.59;;;-1.79;94.86
72210;BME280;60113;48.762;12.302;2023-02-15T15:06:23;98397.03;;;-1.80;94.56
72210;BME280;60113;48.762;12.302;2023-02-15T15:08:49;98397.88;;;-1.80;94.25
72210;BME280;60113;48.762;12.302;2023-02-15T15:13:57;98408.19;;;-1.83;94.40
72210;BME280;60113;48.762;12.302;2023-02-15T15:19:00;98414.25;;;-1.90;93.71
72210;BME280;60113;48.762;12.302;2023-02-15T15:24:09;98407.44;;;-1.93;95.35
72210;BME280;60113;48.762;12.302;2023-02-15T15:26:35;98403.13;;;-1.97;94.96
72210;BME280;60113;48.762;12.302;2023-02-15T15:29:08;98400.56;;;-1.98;95.23
72210;BME280;60113;48.762;12.302;2023-02-15T15:31:47;98408.31;;;-1.98;95.18
72210;BME280;60113;48.762;12.302;2023-02-15T15:34:21;98398.88;;;-1.99;95.84
72210;BME280;60113;48.762;12.302;2023-02-15T15:42:17;98392.91;;;-2.03;95.64
72210;BME280;60113;48.762;12.302;2023-02-15T15:49:54;98389.53;;;-2.15;96.38